Time;durP1;ratioP1;P1;durP2;ratioP2;P2;SDS_P1;SDS_P2;PMS_P1;PMS_P2;Temp;Humidity;BMP_temperature;BMP_pressure;BME280_temperature;BME280_humidity;BME280_pressure;Samples;Min_cycle;Max_cycle;Signal;HPM_P1;HPM_P2
2023/09/09 00:00:45;;;;;;;11.57;9.03;;;15.90;99.90;15.20;101005;;;;576284;245;24049;-76
2023/09/09 00:03:16;;;;;;;9.67;8.57;;;15.90;99.90;15.20;101007;;;;567628;245;24125;-78
2023/09/09 00:05:40;;;;;;;10.17;8.87;;;15.90;99.90;15.20;101005;;;;567418;249;24188;-79
2023/09/09 00:08:08;;;;;;;12.83;9.83;;;15.90;99.90;15.20;101008;;;;568035;249;24084;-75
2023/09/09 00:10:36;;;;;;;12.57;9.50;;;15.90;99.90;15.20;101013;;;;567807;249;24085;-76
2023/09/09 00:13:10;;;;;;;10.70;9.60;;;15.80;99.90;15.20;101010;;;;568091;247;24096;-75
2023/09/09 00:15:35;;;;;;;12.47;11.10;;;15.90;99.90;15.20;101018;;;;567461;249;24187;-77
2023/09/09 00:18:03;;;;;;;11.30;10.13;;;15.80;99.90;15.20;101016;;;;568123;249;24099;-80
2023/09/09 00:20:35;;;;;;;14.73;10.67;;;15.80;99.90;15.10;101015;;;;568384;249;24306;-76
2023/09/09 00:23:12;;;;;;;11.93;10.37;;;15.80;99.90;15.10;101010;;;;572013;247;24114;-76
2023/09/09 00:25:31;;;;;;;14.37;10.20;;;15.80;99.90;15.10;101000;;;;554551;253;24100;-75
2023/09/09 00:27:58;;;;;;;12.43;10.67;;;15.80;99.90;15.10;101011;;;;578699;245;24018;-76
2023/09/09 00:30:26;;;;;;;12.20;11.00;;;15.80;99.90;15.10;101007;;;;569697;248;24083;-75
2023/09/09 00:32:57;;;;;;;16.83;11.47;;;15.80;99.90;15.10;101012;;;;573798;248;24087;-75
2023/09/09 00:35:22;;;;;;;14.13;12.00;;;15.80;99.90;15.20;101009;;;;569126;249;24115;-75
2023/09/09 00:37:54;;;;;;;13.27;11.13;;;15.80;99.90;15.10;101006;;;;569456;249;24064;-76
2023/09/09 00:40:18;;;;;;;11.47;10.27;;;15.80;99.90;15.10;101009;;;;569003;249;24072;-77
2023/09/09 00:42:53;;;;;;;12.70;11.30;;;15.80;99.90;15.10;101008;;;;569128;249;24097;-78
2023/09/09 00:45:20;;;;;;;12.57;10.80;;;15.80;99.90;15.10;101011;;;;572717;246;24050;-75
2023/09/09 00:47:49;;;;;;;15.13;11.30;;;15.80;99.90;15.10;101009;;;;572912;249;24074;-76
2023/09/09 00:50:13;;;;;;;11.80;10.27;;;15.70;99.90;15.10;101007;;;;569235;247;24152;-75
2023/09/09 00:52:44;;;;;;;12.67;11.13;;;15.70;99.90;15.10;101015;;;;568913;249;24105;-84
2023/09/09 00:55:09;;;;;;;11.83;10.60;;;15.70;99.90;15.10;101008;;;;567924;248;24147;-85
2023/09/09 00:57:38;;;;;;;12.93;11.03;;;15.70;99.90;15.00;101015;;;;563983;251;24082;-79
2023/09/09 01:00:12;;;;;;;13.47;10.93;;;15.60;99.90;15.00;101011;;;;561188;252;24099;-80
2023/09/09 01:02:40;;;;;;;12.63;11.17;;;15.60;99.90;15.00;101009;;;;559860;253;24150;-80
2023/09/09 01:05:12;;;;;;;12.30;11.10;;;15.60;99.90;15.00;101012;;;;557589;254;24169;-84
2023/09/09 01:07:48;;;;;;;11.67;10.43;;;15.60;99.90;14.90;101008;;;;567384;249;24133;-86
2023/09/09 01:10:23;;;;;;;13.33;10.80;;;15.60;99.90;14.90;101009;;;;576528;245;24026;-87
2023/09/09 01:12:47;;;;;;;13.60;11.23;;;15.60;99.90;14.80;101013;;;;568103;247;24097;-80
2023/09/09 01:15:15;;;;;;;17.30;11.37;;;15.50;99.90;14.80;101012;;;;567972;249;24136;-78
2023/09/09 01:17:46;;;;;;;11.87;10.67;;;15.50;99.90;14.70;101012;;;;568175;249;24116;-79
2023/09/09 01:20:20;;;;;;;12.77;11.30;;;15.40;99.90;14.70;101020;;;;567437;249;24147;-87
2023/09/09 01:22:48;;;;;;;14.40;10.60;;;15.40;99.90;14.60;101027;;;;570856;251;24094;-86
2023/09/09 01:25:16;;;;;;;15.67;11.73;;;15.30;99.90;14.60;101025;;;;560471;252;24140;-82
2023/09/09 01:27:42;;;;;;;15.13;11.37;;;15.30;99.90;14.60;101022;;;;559834;251;24087;-79
2023/09/09 01:30:17;;;;;;;13.80;11.60;;;15.30;99.90;14.60;101022;;;;561069;252;24132;-79
2023/09/09 01:32:41;;;;;;;13.17;11.27;;;15.20;99.90;14.60;101025;;;;559368;253;24084;-78
2023/09/09 01:35:12;;;;;;;13.57;11.87;;;15.20;99.90;14.50;101029;;;;561227;252;24080;-77
2023/09/09 01:37:37;;;;;;;13.40;11.27;;;15.20;99.90;14.50;101026;;;;558911;253;24077;-75
2023/09/09 01:40:10;;;;;;;14.27;12.10;;;15.10;99.90;14.50;101021;;;;577899;245;24070;-76
2023/09/09 01:42:33;;;;;;;17.77;12.30;;;15.10;99.90;14.50;101034;;;;568778;248;24104;-76
2023/09/09 01:45:01;;;;;;;16.40;12.60;;;15.10;99.90;14.40;101022;;;;568781;249;24076;-77
2023/09/09 01:47:32;;;;;;;13.37;11.97;;;15.10;99.90;14.40;101024;;;;568529;249;24143;-75
2023/09/09 01:49:57;;;;;;;15.73;11.47;;;15.10;99.90;14.40;101023;;;;568795;248;24124;-76
2023/09/09 01:52:28;;;;;;;15.30;12.13;;;15.00;99.90;14.40;101016;;;;573138;244;24168;-76
2023/09/09 01:54:53;;;;;;;13.77;12.33;;;15.00;99.90;14.40;101022;;;;564721;249;24136;-77
2023/09/09 01:57:22;;;;;;;13.80;12.40;;;15.10;99.90;14.40;101032;;;;568531;249;24076;-78
2023/09/09 01:59:48;;;;;;;14.33;12.47;;;15.10;99.90;14.40;101024;;;;572533;249;24066;-76
2023/09/09 02:02:16;;;;;;;14.27;11.87;;;15.00;99.90;14.40;101017;;;;570962;249;24164;-77
2023/09/09 02:04:44;;;;;;;12.93;11.23;;;15.00;99.90;14.40;101017;;;;568312;249;24128;-75
2023/09/09 02:07:12;;;;;;;14.77;12.30;;;15.00;99.90;14.40;101017;;;;568209;247;24082;-80
2023/09/09 02:09:41;;;;;;;13.93;12.33;;;15.10;99.90;14.40;101017;;;;568069;249;24068;-75
2023/09/09 02:12:09;;;;;;;13.13;11.73;;;15.10;99.90;14.40;101011;;;;567471;249;24113;-77
2023/09/09 02:14:37;;;;;;;15.50;11.80;;;15.10;99.90;14.40;101017;;;;576851;247;24099;-79
2023/09/09 02:17:10;;;;;;;12.23;10.53;;;15.10;99.90;14.50;101014;;;;568148;248;24069;-74
2023/09/09 02:19:38;;;;;;;14.73;12.10;;;15.10;99.90;14.50;101013;;;;567316;249;24143;-80
2023/09/09 02:22:06;;;;;;;14.30;11.33;;;15.10;99.90;14.50;101012;;;;571548;249;24107;-77
2023/09/09 02:24:31;;;;;;;20.50;11.83;;;15.10;99.90;14.50;101011;;;;567589;249;24148;-77
2023/09/09 02:26:59;;;;;;;17.17;12.73;;;15.10;99.90;14.50;101007;;;;567948;249;24110;-79
2023/09/09 02:29:27;;;;;;;13.90;11.70;;;15.10;99.90;14.50;101003;;;;567764;249;24081;-82
2023/09/09 02:31:57;;;;;;;14.40;11.63;;;15.20;99.90;14.50;101008;;;;567858;249;24140;-78
2023/09/09 02:34:22;;;;;;;12.53;11.23;;;15.20;99.90;14.50;101001;;;;571011;249;24088;-78
2023/09/09 02:36:50;;;;;;;16.73;11.80;;;15.20;99.90;14.60;101009;;;;567162;249;24147;-82
2023/09/09 02:39:18;;;;;;;12.83;11.57;;;15.20;99.90;14.60;101012;;;;567643;246;24103;-76
2023/09/09 02:41:46;;;;;;;13.90;12.23;;;15.20;99.90;14.60;101007;;;;569607;249;24079;-77
2023/09/09 02:44:14;;;;;;;14.50;11.47;;;15.20;99.90;14.60;101001;;;;567541;249;24095;-79
2023/09/09 02:46:43;;;;;;;13.47;11.53;;;15.30;99.90;14.60;101009;;;;567921;249;24082;-75
2023/09/09 02:49:12;;;;;;;13.10;10.37;;;15.30;99.90;14.60;101006;;;;569245;248;24106;-79
2023/09/09 02:51:40;;;;;;;11.50;10.40;;;15.30;99.90;14.70;101002;;;;568448;249;24085;-76
2023/09/09 02:54:07;;;;;;;13.80;12.30;;;15.30;99.90;14.70;101003;;;;568172;249;24076;-78
2023/09/09 02:56:35;;;;;;;13.90;12.03;;;15.40;99.90;14.70;100995;;;;568277;249;24095;-77
2023/09/09 02:59:03;;;;;;;11.57;10.30;;;15.40;99.90;14.80;100996;;;;567959;249;24089;-75
2023/09/09 03:01:31;;;;;;;13.13;11.03;;;15.40;99.90;14.80;100992;;;;567975;247;24170;-76
2023/09/09 03:03:59;;;;;;;13.77;11.77;;;15.40;99.90;14.80;100998;;;;572580;248;24095;-75
2023/09/09 03:06:27;;;;;;;13.33;11.17;;;15.50;99.90;14.80;100995;;;;568037;249;24210;-79
2023/09/09 03:08:55;;;;;;;11.87;10.33;;;15.50;99.90;14.90;100994;;;;567930;249;24180;-83
2023/09/09 03:11:23;;;;;;;11.50;10.33;;;15.50;99.90;14.90;101003;;;;568241;249;24105;-77
2023/09/09 03:13:51;;;;;;;11.50;10.27;;;15.60;99.90;14.90;101000;;;;568627;249;24084;-75
2023/09/09 03:16:19;;;;;;;11.77;10.57;;;15.60;99.90;15.00;101010;;;;577325;247;24086;-75
2023/09/09 03:18:47;;;;;;;12.70;9.60;;;15.70;99.90;15.00;101003;;;;572560;249;24076;-77
2023/09/09 03:21:15;;;;;;;14.70;10.10;;;15.70;99.90;15.00;101002;;;;567967;249;24186;-77
2023/09/09 03:23:43;;;;;;;11.10;10.00;;;15.70;99.90;15.00;100999;;;;567885;249;24100;-78
2023/09/09 03:26:18;;;;;;;11.23;10.13;;;15.70;99.90;15.10;101000;;;;567997;249;24099;-80
2023/09/09 03:28:40;;;;;;;12.43;10.10;;;15.70;99.90;15.10;101010;;;;567916;249;24136;-75
2023/09/09 03:31:08;;;;;;;10.77;9.63;;;15.70;99.90;15.10;101006;;;;567373;249;24101;-76
2023/09/09 03:33:35;;;;;;;10.73;9.70;;;15.70;99.90;15.10;101002;;;;567352;249;24100;-77
2023/09/09 03:36:03;;;;;;;10.77;9.57;;;15.70;99.90;15.10;101006;;;;567319;248;24151;-77
2023/09/09 03:38:31;;;;;;;12.97;9.93;;;15.70;99.90;15.10;101006;;;;567307;249;24090;-76
2023/09/09 03:40:59;;;;;;;11.03;9.83;;;15.80;99.90;15.10;101002;;;;566763;249;24085;-76
2023/09/09 03:43:27;;;;;;;12.63;10.47;;;15.70;99.90;15.00;101004;;;;567334;249;24088;-80
2023/09/09 03:45:59;;;;;;;11.07;9.87;;;15.70;99.90;15.00;101004;;;;567257;249;24094;-84
2023/09/09 03:48:26;;;;;;;10.53;9.07;;;15.70;99.90;15.00;101009;;;;567234;249;24102;-75
2023/09/09 03:50:51;;;;;;;11.50;9.20;;;15.70;99.90;15.00;100998;;;;567279;249;24081;-75
2023/09/09 03:53:19;;;;;;;10.27;9.27;;;15.70;99.90;15.00;101004;;;;567629;249;24085;-87
2023/09/09 03:55:47;;;;;;;10.57;9.27;;;15.70;99.90;15.00;101000;;;;567704;249;24124;-85
2023/09/09 03:58:15;;;;;;;10.73;9.47;;;15.70;99.90;15.00;100998;;;;567651;249;24081;-77
2023/09/09 04:00:49;;;;;;;9.87;8.97;;;15.70;99.90;15.00;100999;;;;568970;247;24087;-82
2023/09/09 04:03:14;;;;;;;13.20;10.73;;;15.70;99.90;15.00;101003;;;;577402;241;24015;-76
2023/09/09 04:05:47;;;;;;;11.30;10.20;;;15.70;99.90;15.00;101009;;;;557701;253;24097;-84
2023/09/09 04:08:13;;;;;;;10.50;9.50;;;15.70;99.90;15.00;101001;;;;577362;245;24033;-78
2023/09/09 04:10:39;;;;;;;11.67;10.17;;;15.70;99.90;15.10;101005;;;;568807;248;24091;-76
2023/09/09 04:13:08;;;;;;;10.07;9.00;;;15.70;99.90;15.10;101012;;;;568305;249;24128;-76
2023/09/09 04:15:41;;;;;;;10.87;9.77;;;15.70;99.90;15.10;101005;;;;568414;249;24084;-76
2023/09/09 04:18:05;;;;;;;10.53;9.23;;;15.70;99.90;15.20;101002;;;;567610;249;24189;-75
2023/09/09 04:20:36;;;;;;;13.73;12.37;;;15.80;99.90;15.30;101006;;;;563188;247;35363;-75
2023/09/09 04:23:01;;;;;;;11.87;10.03;;;15.90;99.90;15.30;100996;;;;567752;249;24102;-76
2023/09/09 04:25:29;;;;;;;11.53;9.97;;;15.90;99.90;15.30;100996;;;;572422;244;24076;-75
2023/09/09 04:27:57;;;;;;;9.73;8.73;;;16.00;99.90;15.40;100994;;;;568725;249;24069;-75
2023/09/09 04:30:25;;;;;;;11.00;9.80;;;16.00;99.90;15.40;100988;;;;568560;249;24085;-76
2023/09/09 04:32:54;;;;;;;11.50;10.30;;;16.00;99.90;15.40;100993;;;;568378;249;24085;-75
2023/09/09 04:35:21;;;;;;;12.63;9.93;;;16.10;99.90;15.50;100992;;;;568468;249;24095;-75
2023/09/09 04:37:50;;;;;;;11.30;10.20;;;16.10;99.90;15.60;100985;;;;567758;249;24120;-75
2023/09/09 04:40:20;;;;;;;10.93;9.83;;;16.20;99.90;15.70;100994;;;;571758;249;24074;-76
2023/09/09 04:42:45;;;;;;;10.13;9.10;;;16.20;99.90;15.70;100989;;;;567311;249;24176;-78
2023/09/09 04:45:13;;;;;;;10.67;9.67;;;16.30;99.90;15.80;100990;;;;567559;248;24087;-85
2023/09/09 04:47:41;;;;;;;11.00;9.90;;;16.40;99.90;15.80;100989;;;;567530;249;24097;-77
2023/09/09 04:50:13;;;;;;;12.37;10.33;;;16.40;99.90;15.90;100990;;;;567252;249;24091;-81
2023/09/09 04:52:38;;;;;;;12.73;11.48;;;16.50;99.90;15.90;100983;;;;566424;249;35387;-84
2023/09/09 04:55:10;;;;;;;14.43;10.10;;;16.60;99.90;16.00;100988;;;;567649;249;24087;-79
2023/09/09 04:57:36;;;;;;;11.70;10.43;;;16.60;99.90;16.10;100995;;;;567159;249;24091;-79
2023/09/09 05:00:07;;;;;;;9.77;8.93;;;16.60;99.90;16.10;100993;;;;567594;248;24087;-82
2023/09/09 05:02:31;;;;;;;11.17;9.30;;;16.70;99.90;16.20;100996;;;;567424;249;24142;-88
2023/09/09 05:05:02;;;;;;;11.63;10.27;;;16.80;99.90;16.30;100988;;;;567273;249;24116;-83
2023/09/09 05:07:29;;;;;;;10.73;9.63;;;16.80;99.90;16.40;100997;;;;566900;249;24131;-76
2023/09/09 05:09:55;;;;;;;10.30;9.30;;;17.00;99.90;16.50;100997;;;;567157;248;24099;-86
2023/09/09 05:12:23;;;;;;;9.43;8.53;;;17.10;99.90;16.70;100987;;;;568627;248;24074;-77
2023/09/09 05:14:51;;;;;;;10.43;9.43;;;17.30;99.90;17.00;100993;;;;568230;249;24082;-77
2023/09/09 05:17:19;;;;;;;9.70;8.80;;;17.50;99.90;17.20;100997;;;;568210;249;24134;-77
2023/09/09 05:19:47;;;;;;;8.77;7.97;;;17.70;99.90;17.60;100994;;;;567986;249;24086;-80
2023/09/09 05:22:16;;;;;;;9.87;8.93;;;18.10;99.90;17.90;100990;;;;568166;247;24077;-76
2023/09/09 05:24:43;;;;;;;10.33;7.77;;;18.90;99.90;18.40;100986;;;;568226;249;24081;-84
2023/09/09 05:27:16;;;;;;;8.67;7.87;;;19.30;99.90;18.80;100991;;;;568276;249;24065;-79
2023/09/09 05:29:43;;;;;;;7.67;7.00;;;19.70;99.90;19.20;100994;;;;565969;248;23106;-80
2023/09/09 05:32:10;;;;;;;11.63;7.63;;;20.00;99.90;19.60;100984;;;;568074;249;23098;-76
2023/09/09 05:34:38;;;;;;;8.73;6.50;;;20.60;99.90;20.10;100987;;;;567924;248;23087;-82
2023/09/09 05:37:06;;;;;;;7.13;6.20;;;20.50;99.90;20.50;100988;;;;567946;249;24105;-82
2023/09/09 05:39:34;;;;;;;10.93;8.05;;;21.00;99.90;20.70;100982;;;;563130;249;35288;-87
2023/09/09 05:42:06;;;;;;;8.33;7.00;;;21.20;99.90;20.70;100984;;;;567929;247;24073;-84
2023/09/09 05:44:30;;;;;;;8.90;6.67;;;21.30;99.90;20.70;100979;;;;567414;249;23142;-85
2023/09/09 05:46:58;;;;;;;7.80;7.00;;;21.30;99.90;20.70;100977;;;;567743;249;24083;-84
2023/09/09 05:49:26;;;;;;;6.97;6.27;;;21.30;99.90;20.90;100977;;;;567696;249;24125;-81
2023/09/09 05:51:54;;;;;;;10.67;7.13;;;21.50;99.90;21.20;100983;;;;567277;248;24094;-79
2023/09/09 05:54:22;;;;;;;8.47;6.37;;;21.70;99.90;21.50;100977;;;;567390;248;24118;-80
2023/09/09 05:56:49;;;;;;;7.87;6.57;;;22.00;99.90;21.90;100980;;;;567269;249;24120;-83
2023/09/09 05:59:17;;;;;;;7.90;5.73;;;22.30;99.90;22.30;100975;;;;572855;249;24141;-84
2023/09/09 06:01:45;;;;;;;7.57;6.63;;;22.80;99.90;22.90;100977;;;;567323;249;24075;-85
2023/09/09 06:04:14;;;;;;;7.37;6.77;;;23.30;99.90;23.30;100973;;;;567756;249;24107;-85
2023/09/09 06:06:41;;;;;;;8.60;6.37;;;23.70;99.90;23.50;100972;;;;567568;249;24098;-87
2023/09/09 06:09:10;;;;;;;7.50;6.67;;;24.10;99.90;23.60;100978;;;;567560;249;24093;-86
2023/09/09 06:11:42;;;;;;;6.77;6.17;;;24.40;99.90;23.90;100985;;;;567816;249;24152;-77
2023/09/09 06:14:06;;;;;;;8.87;7.47;;;24.30;99.90;24.00;100979;;;;567578;249;23149;-80
2023/09/09 06:16:34;;;;;;;6.83;5.83;;;24.50;99.90;24.10;100981;;;;568193;249;23146;-77
2023/09/09 06:19:02;;;;;;;7.43;6.20;;;24.60;99.90;24.40;100983;;;;575181;249;23090;-77
2023/09/09 06:21:30;;;;;;;7.60;6.90;;;24.90;99.90;25.00;100992;;;;568604;248;23140;-78
2023/09/09 06:24:01;;;;;;;5.70;5.27;;;25.40;99.90;25.40;100991;;;;569785;248;24125;-87
2023/09/09 06:26:32;;;;;;;6.13;5.63;;;25.80;99.90;25.60;100999;;;;569075;248;23188;-79
2023/09/09 06:28:54;;;;;;;6.30;5.80;;;26.10;99.90;25.70;101001;;;;577840;245;23120;-75
2023/09/09 06:31:22;;;;;;;6.60;5.27;;;26.20;99.90;25.90;101002;;;;569068;248;24104;-76
2023/09/09 06:33:50;;;;;;;5.57;5.07;;;26.30;99.90;26.40;101001;;;;568749;249;23129;-76
2023/09/09 06:36:20;;;;;;;7.57;5.10;;;27.40;99.90;27.10;101001;;;;569005;249;24117;-83
2023/09/09 06:38:47;;;;;;;7.97;5.37;;;28.20;99.90;27.90;101005;;;;568555;247;23174;-78
2023/09/09 06:41:16;;;;;;;6.17;4.73;;;28.70;99.90;28.30;101007;;;;568146;249;23087;-79
2023/09/09 06:43:44;;;;;;;5.18;4.28;;;28.60;99.90;28.50;101014;;;;567930;249;23100;-77
2023/09/09 06:46:12;;;;;;;4.95;4.55;;;29.00;99.90;28.70;101021;;;;567940;247;23129;-83
2023/09/09 06:48:39;;;;;;;6.55;4.53;;;29.20;99.90;28.60;101016;;;;567905;249;23109;-84
2023/09/09 06:51:07;;;;;;;4.20;3.72;;;29.20;99.60;28.60;101016;;;;567978;249;23135;-76
2023/09/09 06:53:35;;;;;;;5.25;4.53;;;29.10;98.00;28.50;101016;;;;567611;249;23115;-76
2023/09/09 06:56:07;;;;;;;5.65;3.97;;;29.10;97.80;28.70;101019;;;;567654;249;23091;-76
2023/09/09 06:58:34;;;;;;;4.68;4.20;;;29.20;97.40;29.10;101019;;;;575976;245;23064;-76
2023/09/09 07:01:02;;;;;;;5.93;4.03;;;29.50;96.50;29.70;101025;;;;567356;249;23118;-76
2023/09/09 07:03:27;;;;;;;5.03;4.62;;;30.00;95.50;30.70;101025;;;;567819;245;23106;-75
2023/09/09 07:05:55;;;;;;;5.20;4.25;;;30.90;94.10;32.00;101030;;;;567919;249;23145;-76
2023/09/09 07:08:24;;;;;;;6.97;3.78;;;33.60;87.60;33.60;101030;;;;567950;249;23118;-76
2023/09/09 07:10:51;;;;;;;4.25;3.90;;;33.50;87.40;35.30;101033;;;;567823;249;23099;-77
2023/09/09 07:13:23;;;;;;;5.50;4.45;;;35.20;80.50;37.00;101032;;;;567821;249;23090;-78
2023/09/09 07:15:47;;;;;;;4.78;3.45;;;37.00;72.50;37.80;101029;;;;567787;249;23095;-76
2023/09/09 07:18:15;;;;;;;3.75;3.40;;;38.00;64.60;38.00;101026;;;;567761;248;23101;-76
2023/09/09 07:20:46;;;;;;;4.43;2.60;;;38.40;60.10;37.90;101026;;;;568152;249;23157;-77
2023/09/09 07:23:16;;;;;;;4.25;3.30;;;38.50;58.20;38.00;101029;;;;567780;249;23094;-78
2023/09/09 07:25:40;;;;;;;8.57;3.20;;;38.50;56.90;38.60;101035;;;;567466;249;23174;-77
2023/09/09 07:28:09;;;;;;;5.18;3.00;;;39.60;54.10;39.30;101042;;;;568050;249;23123;-78
2023/09/09 07:30:37;;;;;;;2.92;2.72;;;39.50;54.00;39.80;101045;;;;557947;254;23104;-76
2023/09/09 07:33:05;;;;;;;2.55;2.28;;;40.10;51.70;40.00;101042;;;;577080;245;23024;-77
2023/09/09 07:35:38;;;;;;;2.80;2.60;;;40.30;51.10;40.30;101046;;;;567680;252;23098;-76
2023/09/09 07:38:07;;;;;;;2.50;2.40;;;40.60;50.60;40.70;101048;;;;586573;245;23096;-77
2023/09/09 07:40:34;;;;;;;4.40;2.47;;;41.00;50.10;41.20;101053;;;;568793;249;24123;-79
2023/09/09 07:43:02;;;;;;;3.87;2.50;;;41.50;49.40;41.60;101055;;;;568873;249;23126;-76
2023/09/09 07:45:30;;;;;;;2.55;2.25;;;41.80;48.20;41.90;101053;;;;568242;249;23091;-77
2023/09/09 07:47:58;;;;;;;3.08;2.47;;;42.20;47.60;42.20;101052;;;;577170;245;23056;-77
2023/09/09 07:50:26;;;;;;;5.47;2.28;;;42.50;47.20;42.70;101062;;;;568842;249;23088;-76
2023/09/09 07:52:55;;;;;;;6.07;2.78;;;42.90;45.80;43.10;101055;;;;568765;249;23091;-79
2023/09/09 07:55:24;;;;;;;7.47;2.72;;;43.40;45.20;43.60;101057;;;;568175;247;23114;-78
2023/09/09 07:57:57;;;;;;;2.67;2.58;;;43.80;44.90;43.80;101069;;;;568308;249;23140;-77
2023/09/09 08:00:23;;;;;;;9.82;3.03;;;44.10;44.70;44.00;101064;;;;568225;249;23135;-76
2023/09/09 08:02:52;;;;;;;3.33;2.87;;;44.70;44.20;44.50;101066;;;;568292;249;23113;-77
2023/09/09 08:05:20;;;;;;;3.10;2.80;;;44.70;44.20;45.10;101073;;;;568291;249;23122;-77
2023/09/09 08:07:48;;;;;;;3.33;3.03;;;45.30;43.70;45.40;101072;;;;568675;249;23099;-76
2023/09/09 08:10:21;;;;;;;2.90;2.80;;;45.70;43.20;45.50;101073;;;;568284;249;23181;-77
2023/09/09 08:12:45;;;;;;;3.40;3.10;;;45.90;43.00;45.80;101075;;;;567557;248;23133;-76
2023/09/09 08:15:15;;;;;;;3.37;3.15;;;46.50;42.50;46.00;101072;;;;567909;249;23114;-77
2023/09/09 08:17:43;;;;;;;5.05;3.40;;;46.40;42.40;45.80;101071;;;;576466;245;23044;-76
2023/09/09 08:20:12;;;;;;;4.40;3.10;;;46.40;42.10;45.40;101072;;;;567695;249;23115;-77
2023/09/09 08:22:41;;;;;;;4.50;3.37;;;46.10;42.70;45.60;101081;;;;567920;249;23134;-76
2023/09/09 08:25:12;;;;;;;4.30;3.35;;;46.10;42.70;45.90;101078;;;;576309;245;23014;-76
2023/09/09 08:27:41;;;;;;;3.15;2.95;;;46.40;42.30;46.40;101072;;;;567542;249;23103;-77
2023/09/09 08:30:10;;;;;;;4.60;3.47;;;47.30;41.70;47.10;101069;;;;567464;249;23094;-76
2023/09/09 08:32:38;;;;;;;7.40;3.05;;;47.30;41.70;48.00;101072;;;;567544;249;23091;-75
2023/09/09 08:35:08;;;;;;;3.95;3.65;;;48.90;39.80;48.50;101075;;;;567595;249;23100;-75
2023/09/09 08:37:38;;;;;;;6.97;3.58;;;49.50;39.40;49.00;101074;;;;567915;249;23084;-76
2023/09/09 08:40:10;;;;;;;5.07;3.87;;;49.40;39.30;49.60;101072;;;;576426;245;23028;-76
2023/09/09 08:42:40;;;;;;;3.75;3.53;;;50.10;39.10;50.10;101073;;;;567674;249;23121;-76
2023/09/09 08:45:23;;;;;;;4.30;3.22;;;50.70;38.10;50.40;101071;;;;572762;243;23048;-77
2023/09/09 08:47:51;;;;;;;4.90;3.60;;;51.20;38.10;50.70;101073;;;;558864;253;23283;-76
2023/09/09 08:50:16;;;;;;;3.75;3.42;;;51.50;37.60;50.50;101077;;;;576299;245;23031;-77
2023/09/09 08:52:43;;;;;;;7.25;4.18;;;51.60;37.20;50.30;101073;;;;567874;249;23199;-78
2023/09/09 08:55:15;;;;;;;3.80;3.50;;;51.50;37.30;49.70;101077;;;;577108;245;23036;-78
2023/09/09 08:57:43;;;;;;;5.18;3.95;;;51.10;37.40;49.40;101086;;;;557697;253;23103;-78
2023/09/09 09:00:07;;;;;;;3.87;3.58;;;50.70;37.80;49.00;101079;;;;567779;246;23076;-85
2023/09/09 09:02:39;;;;;;;5.00;3.95;;;50.30;38.30;48.70;101081;;;;577301;245;23033;-84
2023/09/09 09:05:07;;;;;;;4.40;3.95;;;50.00;37.70;48.40;101074;;;;568100;249;23141;-76
2023/09/09 09:07:32;;;;;;;4.68;4.20;;;49.60;38.50;48.50;101069;;;;567044;249;23179;-76
2023/09/09 09:10:03;;;;;;;5.18;4.32;;;49.60;39.10;47.90;101069;;;;576151;245;23046;-76
2023/09/09 09:12:30;;;;;;;4.40;3.97;;;49.20;38.70;47.70;101071;;;;567804;249;23166;-77
2023/09/09 09:14:58;;;;;;;4.62;4.20;;;49.00;39.20;47.90;101067;;;;568221;248;23103;-77
2023/09/09 09:17:26;;;;;;;4.87;4.47;;;49.00;39.50;47.90;101076;;;;568957;249;23154;-75
2023/09/09 09:19:54;;;;;;;4.60;4.03;;;49.00;39.40;47.70;101077;;;;569201;249;23151;-75
2023/09/09 09:22:22;;;;;;;7.72;4.03;;;48.80;39.10;47.20;101077;;;;577677;245;23069;-77
2023/09/09 09:24:50;;;;;;;6.32;4.50;;;48.60;39.50;46.50;101074;;;;558171;254;23155;-76
2023/09/09 09:27:18;;;;;;;4.50;4.10;;;48.00;40.50;45.70;101079;;;;577188;245;23041;-83
2023/09/09 09:29:49;;;;;;;8.18;4.18;;;47.20;40.30;45.10;101066;;;;568018;249;23122;-80
2023/09/09 09:32:16;;;;;;;4.95;3.97;;;46.50;41.00;44.90;101068;;;;567528;249;23139;-79
2023/09/09 09:34:42;;;;;;;7.60;3.97;;;46.10;41.20;44.90;101068;;;;568160;249;23146;-79
2023/09/09 09:37:15;;;;;;;5.95;4.55;;;45.90;41.10;44.70;101072;;;;567790;249;23098;-79
2023/09/09 09:39:41;;;;;;;6.80;4.37;;;45.80;41.70;44.40;101074;;;;567298;249;23229;-79
2023/09/09 09:42:08;;;;;;;4.68;4.32;;;45.60;41.70;44.00;101067;;;;567577;249;24112;-77
2023/09/09 09:44:36;;;;;;;4.70;4.30;;;45.10;42.20;43.90;101065;;;;567129;249;23117;-79
2023/09/09 09:47:04;;;;;;;5.65;4.95;;;44.90;42.20;44.00;101069;;;;567507;247;23116;-78
2023/09/09 09:49:44;;;;;;;5.22;4.70;;;45.00;42.90;44.30;101059;;;;566727;249;24153;-82
2023/09/09 09:52:09;;;;;;;5.20;4.53;;;45.30;42.60;44.80;101074;;;;567007;247;23087;-80
2023/09/09 09:54:40;;;;;;;7.22;4.97;;;45.70;42.10;44.80;101059;;;;576357;245;23072;-78
2023/09/09 09:57:05;;;;;;;5.47;5.03;;;46.00;41.30;44.60;101061;;;;562672;248;35293;-78
2023/09/09 09:59:36;;;;;;;5.10;4.70;;;46.10;41.30;44.10;101066;;;;577378;245;23060;-78
2023/09/09 10:02:04;;;;;;;6.57;4.57;;;45.60;41.50;43.60;101068;;;;558611;253;23182;-78
2023/09/09 10:04:28;;;;;;;5.93;4.20;;;45.10;40.80;42.60;101064;;;;576827;245;23049;-78
2023/09/09 10:07:00;;;;;;;4.53;4.05;;;44.40;41.60;42.40;101063;;;;568427;248;23150;-78
2023/09/09 10:09:36;;;;;;;4.50;4.20;;;43.80;42.50;42.10;101061;;;;576978;245;23100;-78
2023/09/09 10:12:19;;;;;;;5.35;4.95;;;43.50;44.40;41.50;101058;;;;555641;253;23130;-81
2023/09/09 10:14:50;;;;;;;6.72;4.82;;;43.00;44.00;40.80;101054;;;;576171;245;23004;-87
2023/09/09 10:17:15;;;;;;;10.68;5.78;;;42.10;44.10;39.90;101055;;;;557219;252;23155;-80
2023/09/09 10:19:42;;;;;;;5.30;4.80;;;41.20;45.70;39.10;101065;;;;576162;245;23064;-80
2023/09/09 10:22:14;;;;;;;5.82;5.32;;;40.40;46.20;38.10;101062;;;;567211;248;23158;-80
2023/09/09 10:24:42;;;;;;;5.87;5.05;;;39.40;47.30;37.40;101059;;;;576013;245;23081;-84
2023/09/09 10:27:06;;;;;;;6.45;5.10;;;38.50;48.20;36.80;101054;;;;556835;253;23102;-78
2023/09/09 10:29:34;;;;;;;5.15;4.62;;;37.80;49.20;36.40;101053;;;;575923;245;23150;-76
2023/09/09 10:32:06;;;;;;;5.82;5.30;;;37.20;50.10;36.00;101055;;;;567374;248;23113;-78
2023/09/09 10:34:30;;;;;;;5.37;4.97;;;36.70;50.70;35.50;101044;;;;566577;249;23127;-78
2023/09/09 10:37:02;;;;;;;6.60;5.22;;;36.20;51.30;34.60;101047;;;;566773;249;23095;-77
2023/09/09 10:39:26;;;;;;;5.78;5.22;;;35.50;52.10;34.30;101044;;;;566798;249;23094;-76
2023/09/09 10:41:54;;;;;;;8.32;4.85;;;35.00;53.90;34.00;101049;;;;566914;248;23115;-82
2023/09/09 10:44:26;;;;;;;5.50;5.00;;;34.50;54.90;33.80;101050;;;;575653;245;23088;-77
2023/09/09 10:46:58;;;;;;;6.32;5.37;;;34.20;54.60;33.60;101044;;;;567170;249;23102;-76
2023/09/09 10:49:32;;;;;;;6.35;4.70;;;34.00;55.70;33.30;101042;;;;567208;249;23128;-76
2023/09/09 10:52:00;;;;;;;5.57;5.18;;;33.80;55.90;33.20;101047;;;;567180;249;23103;-81
2023/09/09 10:54:29;;;;;;;7.40;5.90;;;33.40;56.40;33.00;101040;;;;567203;249;24168;-77
2023/09/09 10:56:59;;;;;;;8.35;5.10;;;33.40;56.40;32.80;101042;;;;566984;249;23162;-76
2023/09/09 10:59:24;;;;;;;7.90;5.10;;;33.20;57.70;32.70;101033;;;;567736;249;23111;-75
2023/09/09 11:02:18;;;;;;;6.20;5.57;;;33.00;58.40;32.60;101036;;;;567376;249;24137;-80
2023/09/09 11:04:47;;;;;;;8.18;5.15;;;32.90;59.70;32.50;101034;;;;576147;245;23107;-78
2023/09/09 11:07:18;;;;;;;5.60;5.10;;;32.90;58.50;32.30;101036;;;;556309;252;24127;-76